sensor_id;sensor_type;location;lat;lon;timestamp;P1;P2;P0
73148;PMS7003;61346;48.930;2.266;2022-09-16T00:01:23;5.50;4.75;4.00
73148;PMS7003;61346;48.930;2.266;2022-09-16T00:03:52;6.25;5.25;4.00
73148;PMS7003;61346;48.930;2.266;2022-09-16T00:06:22;6.25;5.00;4.00
73148;PMS7003;61346;48.930;2.266;2022-09-16T00:09:01;5.75;5.75;4.75
73148;PMS7003;61346;48.930;2.266;2022-09-16T00:11:44;6.75;5.75;4.25
73148;PMS7003;61346;48.930;2.266;2022-09-16T00:17:00;7.00;6.00;4.75
73148;PMS7003;61346;48.930;2.266;2022-09-16T00:19:33;4.50;4.50;3.25
73148;PMS7003;61346;48.930;2.266;2022-09-16T00:22:01;5.00;5.00;4.00
73148;PMS7003;61346;48.930;2.266;2022-09-16T00:24:29;5.25;4.00;3.75
73148;PMS7003;61346;48.930;2.266;2022-09-16T00:27:17;4.75;4.75;3.75
73148;PMS7003;61346;48.930;2.266;2022-09-16T00:29:53;6.00;5.00;4.00
73148;PMS7003;61346;48.930;2.266;2022-09-16T00:32:45;7.00;5.00;4.00
73148;PMS7003;61346;48.930;2.266;2022-09-16T00:35:26;7.25;6.25;4.75
73148;PMS7003;61346;48.930;2.266;2022-09-16T00:38:03;6.00;6.00;4.25
73148;PMS7003;61346;48.930;2.266;2022-09-16T00:40:33;7.00;5.00;4.00
73148;PMS7003;61346;48.930;2.266;2022-09-16T00:43:01;5.00;5.00;4.50
73148;PMS7003;61346;48.930;2.266;2022-09-16T00:45:27;6.25;6.00;5.00
73148;PMS7003;61346;48.930;2.266;2022-09-16T00:48:01;7.00;7.00;5.00
73148;PMS7003;61346;48.930;2.266;2022-09-16T00:50:32;7.00;6.75;5.00
73148;PMS7003;61346;48.930;2.266;2022-09-16T00:53:15;6.00;6.00;5.00
73148;PMS7003;61346;48.930;2.266;2022-09-16T00:56:05;8.00;6.00;5.00
73148;PMS7003;61346;48.930;2.266;2022-09-16T01:01:29;7.50;6.75;6.00
73148;PMS7003;61346;48.930;2.266;2022-09-16T01:04:08;6.25;6.25;5.00
73148;PMS7003;61346;48.930;2.266;2022-09-16T01:06:48;10.00;5.75;5.00
73148;PMS7003;61346;48.930;2.266;2022-09-16T01:09:15;7.00;5.75;4.25
73148;PMS7003;61346;48.930;2.266;2022-09-16T01:12:01;7.75;7.50;6.00
73148;PMS7003;61346;48.930;2.266;2022-09-16T01:14:31;9.00;8.00;6.25
73148;PMS7003;61346;48.930;2.266;2022-09-16T01:23:19;8.00;8.00;6.00
73148;PMS7003;61346;48.930;2.266;2022-09-16T01:31:55;7.00;7.00;6.00
73148;PMS7003;61346;48.930;2.266;2022-09-16T01:37:59;7.75;7.25;6.00
73148;PMS7003;61346;48.930;2.266;2022-09-16T01:43:41;7.50;7.00;5.00
73148;PMS7003;61346;48.930;2.266;2022-09-16T01:46:51;9.50;8.00;5.50
73148;PMS7003;61346;48.930;2.266;2022-09-16T01:52:56;7.00;7.00;6.00
73148;PMS7003;61346;48.930;2.266;2022-09-16T01:55:34;7.50;7.00;5.25
73148;PMS7003;61346;48.930;2.266;2022-09-16T02:00:50;7.00;6.00;5.00
73148;PMS7003;61346;48.930;2.266;2022-09-16T02:03:37;10.00;8.00;6.00
73148;PMS7003;61346;48.930;2.266;2022-09-16T02:06:08;8.00;8.00;7.00
73148;PMS7003;61346;48.930;2.266;2022-09-16T02:08:51;8.75;8.00;7.00
73148;PMS7003;61346;48.930;2.266;2022-09-16T02:11:21;8.50;7.75;6.00
73148;PMS7003;61346;48.930;2.266;2022-09-16T02:17:15;9.00;7.75;7.00
73148;PMS7003;61346;48.930;2.266;2022-09-16T02:19:50;8.75;8.00;7.00
73148;PMS7003;61346;48.930;2.266;2022-09-16T02:22:25;11.50;9.50;7.25
73148;PMS7003;61346;48.930;2.266;2022-09-16T02:25:23;10.75;8.25;6.00
73148;PMS7003;61346;48.930;2.266;2022-09-16T02:28:18;12.25;9.75;7.50
73148;PMS7003;61346;48.930;2.266;2022-09-16T02:30:55;10.00;9.00;7.50
73148;PMS7003;61346;48.930;2.266;2022-09-16T02:33:42;10.00;10.00;9.00
73148;PMS7003;61346;48.930;2.266;2022-09-16T02:36:27;9.75;9.50;6.75
73148;PMS7003;61346;48.930;2.266;2022-09-16T02:39:30;8.75;8.75;6.75
73148;PMS7003;61346;48.930;2.266;2022-09-16T02:42:15;9.75;9.75;8.25
73148;PMS7003;61346;48.930;2.266;2022-09-16T02:44:43;9.75;8.50;6.75
73148;PMS7003;61346;48.930;2.266;2022-09-16T02:50:13;10.00;8.75;6.75
73148;PMS7003;61346;48.930;2.266;2022-09-16T02:52:56;10.75;9.00;6.25
73148;PMS7003;61346;48.930;2.266;2022-09-16T02:55:53;9.50;8.25;7.00
73148;PMS7003;61346;48.930;2.266;2022-09-16T03:01:10;8.00;8.00;6.75
73148;PMS7003;61346;48.930;2.266;2022-09-16T03:03:40;10.25;10.00;8.00
73148;PMS7003;61346;48.930;2.266;2022-09-16T03:06:22;9.00;9.00;7.75
73148;PMS7003;61346;48.930;2.266;2022-09-16T03:08:53;9.00;9.00;7.00
73148;PMS7003;61346;48.930;2.266;2022-09-16T03:21:01;11.25;10.25;7.00
73148;PMS7003;61346;48.930;2.266;2022-09-16T03:27:21;10.75;9.00;7.00
73148;PMS7003;61346;48.930;2.266;2022-09-16T03:36:55;9.25;9.25;7.00
73148;PMS7003;61346;48.930;2.266;2022-09-16T03:39:46;13.25;10.00;7.25
73148;PMS7003;61346;48.930;2.266;2022-09-16T03:42:42;9.75;8.75;7.00
73148;PMS7003;61346;48.930;2.266;2022-09-16T03:45:20;9.50;8.00;6.25
73148;PMS7003;61346;48.930;2.266;2022-09-16T03:51:15;8.50;8.50;6.75
73148;PMS7003;61346;48.930;2.266;2022-09-16T03:53:52;11.75;9.00;7.00
73148;PMS7003;61346;48.930;2.266;2022-09-16T04:00:22;11.00;9.25;6.75
73148;PMS7003;61346;48.930;2.266;2022-09-16T04:03:08;9.25;9.25;7.00
73148;PMS7003;61346;48.930;2.266;2022-09-16T04:06:00;8.00;7.00;6.00
73148;PMS7003;61346;48.930;2.266;2022-09-16T04:12:04;11.00;9.00;7.00
73148;PMS7003;61346;48.930;2.266;2022-09-16T04:14:59;10.25;9.00;6.25
73148;PMS7003;61346;48.930;2.266;2022-09-16T04:17:29;11.00;10.00;8.00
73148;PMS7003;61346;48.930;2.266;2022-09-16T04:20:23;10.00;9.00;6.75
73148;PMS7003;61346;48.930;2.266;2022-09-16T04:23:12;11.75;9.50;6.25
73148;PMS7003;61346;48.930;2.266;2022-09-16T04:26:01;9.25;8.00;7.00
73148;PMS7003;61346;48.930;2.266;2022-09-16T04:28:30;9.00;8.25;6.00
73148;PMS7003;61346;48.930;2.266;2022-09-16T04:38:11;11.25;10.50;7.50
73148;PMS7003;61346;48.930;2.266;2022-09-16T04:40:39;10.75;9.75;7.25
73148;PMS7003;61346;48.930;2.266;2022-09-16T04:43:49;8.00;8.00;7.00
73148;PMS7003;61346;48.930;2.266;2022-09-16T04:46:49;8.25;8.00;6.75
73148;PMS7003;61346;48.930;2.266;2022-09-16T04:49:18;10.00;9.00;7.50
73148;PMS7003;61346;48.930;2.266;2022-09-16T04:52:16;10.00;9.75;7.00
73148;PMS7003;61346;48.930;2.266;2022-09-16T04:55:09;10.50;10.00;7.75
73148;PMS7003;61346;48.930;2.266;2022-09-16T05:10:54;11.25;10.25;8.75
73148;PMS7003;61346;48.930;2.266;2022-09-16T05:13:41;10.50;9.50;7.00
73148;PMS7003;61346;48.930;2.266;2022-09-16T05:16:26;11.75;11.00;8.25
73148;PMS7003;61346;48.930;2.266;2022-09-16T05:19:46;9.75;9.00;7.00
73148;PMS7003;61346;48.930;2.266;2022-09-16T05:29:02;14.25;9.75;7.00
73148;PMS7003;61346;48.930;2.266;2022-09-16T05:42:34;16.00;13.00;9.00
73148;PMS7003;61346;48.930;2.266;2022-09-16T05:45:28;16.50;13.50;9.50
73148;PMS7003;61346;48.930;2.266;2022-09-16T05:47:56;16.25;12.75;10.00
73148;PMS7003;61346;48.930;2.266;2022-09-16T05:57:17;12.00;12.00;8.75
73148;PMS7003;61346;48.930;2.266;2022-09-16T05:59:47;14.25;12.50;9.00
73148;PMS7003;61346;48.930;2.266;2022-09-16T06:08:46;14.00;13.00;9.25
73148;PMS7003;61346;48.930;2.266;2022-09-16T07:05:04;16.75;14.00;11.25
73148;PMS7003;61346;48.930;2.266;2022-09-16T07:07:22;14.00;12.00;9.75
73148;PMS7003;61346;48.930;2.266;2022-09-16T07:15:14;12.75;12.75;9.00
73148;PMS7003;61346;48.930;2.266;2022-09-16T07:28:01;62.00;48.00;33.00
73148;PMS7003;61346;48.930;2.266;2022-09-16T07:34:08;14.75;14.00;11.00
73148;PMS7003;61346;48.930;2.266;2022-09-16T07:36:45;18.25;13.50;11.75
73148;PMS7003;61346;48.930;2.266;2022-09-16T07:40:03;13.00;11.50;10.00
73148;PMS7003;61346;48.930;2.266;2022-09-16T07:42:56;14.00;14.00;11.00
73148;PMS7003;61346;48.930;2.266;2022-09-16T07:52:24;16.75;15.00;11.75
73148;PMS7003;61346;48.930;2.266;2022-09-16T07:54:53;14.00;12.50;9.25
73148;PMS7003;61346;48.930;2.266;2022-09-16T07:57:42;13.25;12.25;11.00
73148;PMS7003;61346;48.930;2.266;2022-09-16T08:00:14;12.50;12.50;10.00
73148;PMS7003;61346;48.930;2.266;2022-09-16T08:03:00;13.25;11.00;9.00
73148;PMS7003;61346;48.930;2.266;2022-09-16T08:05:58;10.75;7.75;5.00
73148;PMS7003;61346;48.930;2.266;2022-09-16T08:08:44;10.00;8.75;6.00
73148;PMS7003;61346;48.930;2.266;2022-09-16T08:11:42;12.75;9.00;7.00
73148;PMS7003;61346;48.930;2.266;2022-09-16T08:14:10;12.00;11.00;8.00
73148;PMS7003;61346;48.930;2.266;2022-09-16T08:20:42;9.00;8.50;6.00
73148;PMS7003;61346;48.930;2.266;2022-09-16T08:23:09;9.50;9.50;7.00
73148;PMS7003;61346;48.930;2.266;2022-09-16T08:32:08;13.00;11.50;7.25
73148;PMS7003;61346;48.930;2.266;2022-09-16T08:37:56;11.25;9.25;6.75
73148;PMS7003;61346;48.930;2.266;2022-09-16T08:40:23;11.25;8.25;6.50
73148;PMS7003;61346;48.930;2.266;2022-09-16T08:46:40;10.50;9.50;7.00
73148;PMS7003;61346;48.930;2.266;2022-09-16T08:55:40;5.00;4.00;1.50
73148;PMS7003;61346;48.930;2.266;2022-09-16T09:02:06;9.25;9.25;6.25
73148;PMS7003;61346;48.930;2.266;2022-09-16T09:12:55;5.00;5.00;4.00
73148;PMS7003;61346;48.930;2.266;2022-09-16T09:15:41;5.75;4.00;3.00
73148;PMS7003;61346;48.930;2.266;2022-09-16T09:24:37;3.00;3.00;2.00
73148;PMS7003;61346;48.930;2.266;2022-09-16T09:27:13;3.00;2.00;2.00
73148;PMS7003;61346;48.930;2.266;2022-09-16T09:36:06;3.25;3.25;3.00
73148;PMS7003;61346;48.930;2.266;2022-09-16T09:48:14;3.00;2.00;1.00
73148;PMS7003;61346;48.930;2.266;2022-09-16T09:50:56;1.25;1.25;1.00
73148;PMS7003;61346;48.930;2.266;2022-09-16T09:53:44;1.00;1.00;1.00
73148;PMS7003;61346;48.930;2.266;2022-09-16T10:02:15;1.00;1.00;0.75
73148;PMS7003;61346;48.930;2.266;2022-09-16T10:11:19;3.00;2.00;2.00
73148;PMS7003;61346;48.930;2.266;2022-09-16T10:13:53;4.00;2.00;1.75
73148;PMS7003;61346;48.930;2.266;2022-09-16T10:19:56;3.00;1.00;1.00
73148;PMS7003;61346;48.930;2.266;2022-09-16T10:22:51;1.50;1.50;1.00
73148;PMS7003;61346;48.930;2.266;2022-09-16T10:25:24;0.75;0.75;0.00
73148;PMS7003;61346;48.930;2.266;2022-09-16T14:01:19;3.50;2.00;2.00
73148;PMS7003;61346;48.930;2.266;2022-09-16T14:06:35;2.00;2.00;2.00
73148;PMS7003;61346;48.930;2.266;2022-09-16T14:12:17;4.00;2.25;1.75
73148;PMS7003;61346;48.930;2.266;2022-09-16T14:15:03;1.00;1.00;1.00
73148;PMS7003;61346;48.930;2.266;2022-09-16T14:20:13;0.25;0.25;0.25
73148;PMS7003;61346;48.930;2.266;2022-09-16T14:23:24;0.25;0.25;0.00
73148;PMS7003;61346;48.930;2.266;2022-09-16T14:25:40;1.25;1.25;1.00
73148;PMS7003;61346;48.930;2.266;2022-09-16T14:28:14;0.00;0.00;0.00
73148;PMS7003;61346;48.930;2.266;2022-09-16T14:30:45;0.00;0.00;0.00
73148;PMS7003;61346;48.930;2.266;2022-09-16T14:33:29;2.50;1.50;1.00
73148;PMS7003;61346;48.930;2.266;2022-09-16T14:38:59;2.00;1.00;0.00
73148;PMS7003;61346;48.930;2.266;2022-09-16T14:44:20;1.75;1.00;1.00
73148;PMS7003;61346;48.930;2.266;2022-09-16T14:47:02;1.00;1.00;1.00
73148;PMS7003;61346;48.930;2.266;2022-09-16T14:49:39;1.00;1.00;1.00
73148;PMS7003;61346;48.930;2.266;2022-09-16T14:52:13;1.00;1.00;1.00
73148;PMS7003;61346;48.930;2.266;2022-09-16T14:54:44;1.00;1.00;1.00
73148;PMS7003;61346;48.930;2.266;2022-09-16T14:57:14;0.50;0.25;0.25
73148;PMS7003;61346;48.930;2.266;2022-09-16T14:59:44;0.25;0.25;0.25
73148;PMS7003;61346;48.930;2.266;2022-09-16T15:04:42;0.00;0.00;0.00
73148;PMS7003;61346;48.930;2.266;2022-09-16T15:07:27;1.00;1.00;0.50
73148;PMS7003;61346;48.930;2.266;2022-09-16T15:10:39;0.25;0.00;0.00
73148;PMS7003;61346;48.930;2.266;2022-09-16T15:12:50;0.75;0.75;0.25
73148;PMS7003;61346;48.930;2.266;2022-09-16T15:15:28;2.00;1.00;0.50
73148;PMS7003;61346;48.930;2.266;2022-09-16T15:18:00;1.25;1.00;1.00
73148;PMS7003;61346;48.930;2.266;2022-09-16T15:20:30;1.00;1.00;1.00
73148;PMS7003;61346;48.930;2.266;2022-09-16T15:22:59;1.00;1.00;1.00
73148;PMS7003;61346;48.930;2.266;2022-09-16T15:25:33;1.00;1.00;1.00
73148;PMS7003;61346;48.930;2.266;2022-09-16T15:28:06;1.00;1.00;1.00
73148;PMS7003;61346;48.930;2.266;2022-09-16T15:30:46;0.75;0.75;0.00
73148;PMS7003;61346;48.930;2.266;2022-09-16T15:33:52;2.25;1.25;1.25
73148;PMS7003;61346;48.930;2.266;2022-09-16T15:36:32;0.00;0.00;0.00
73148;PMS7003;61346;48.930;2.266;2022-09-16T15:39:00;1.00;1.00;1.00
73148;PMS7003;61346;48.930;2.266;2022-09-16T15:41:25;1.75;1.75;1.00
73148;PMS7003;61346;48.930;2.266;2022-09-16T15:43:54;1.00;1.00;1.00
73148;PMS7003;61346;48.930;2.266;2022-09-16T15:46:22;1.75;1.75;1.00
73148;PMS7003;61346;48.930;2.266;2022-09-16T15:48:52;0.25;0.25;0.25
73148;PMS7003;61346;48.930;2.266;2022-09-16T15:56:49;1.00;1.00;1.00
73148;PMS7003;61346;48.930;2.266;2022-09-16T15:59:36;1.00;1.00;1.00
73148;PMS7003;61346;48.930;2.266;2022-09-16T16:03:13;0.75;0.75;0.25
73148;PMS7003;61346;48.930;2.266;2022-09-16T16:05:29;0.00;0.00;0.00
73148;PMS7003;61346;48.930;2.266;2022-09-16T16:07:56;0.00;0.00;0.00
73148;PMS7003;61346;48.930;2.266;2022-09-16T16:10:28;1.00;1.00;1.00
73148;PMS7003;61346;48.930;2.266;2022-09-16T16:12:55;1.25;0.25;0.00
73148;PMS7003;61346;48.930;2.266;2022-09-16T16:15:24;0.00;0.00;0.00
73148;PMS7003;61346;48.930;2.266;2022-09-16T16:17:59;1.50;1.00;1.00
73148;PMS7003;61346;48.930;2.266;2022-09-16T16:20:28;0.50;0.50;0.50
73148;PMS7003;61346;48.930;2.266;2022-09-16T16:22:57;1.00;1.00;1.00
73148;PMS7003;61346;48.930;2.266;2022-09-16T16:25:24;0.75;0.00;0.00
73148;PMS7003;61346;48.930;2.266;2022-09-16T16:27:50;0.00;0.00;0.00
73148;PMS7003;61346;48.930;2.266;2022-09-16T16:30:19;0.25;0.25;0.00
73148;PMS7003;61346;48.930;2.266;2022-09-16T16:32:50;0.00;0.00;0.00
73148;PMS7003;61346;48.930;2.266;2022-09-16T16:35:34;0.00;0.00;0.00
73148;PMS7003;61346;48.930;2.266;2022-09-16T16:38:12;0.00;0.00;0.00
73148;PMS7003;61346;48.930;2.266;2022-09-16T16:40:48;0.00;0.00;0.00
73148;PMS7003;61346;48.930;2.266;2022-09-16T16:43:18;1.00;1.00;0.50
73148;PMS7003;61346;48.930;2.266;2022-09-16T16:48:45;0.50;0.50;0.25
73148;PMS7003;61346;48.930;2.266;2022-09-16T16:51:11;0.00;0.00;0.00
73148;PMS7003;61346;48.930;2.266;2022-09-16T16:53:38;0.00;0.00;0.00
73148;PMS7003;61346;48.930;2.266;2022-09-16T16:56:04;0.00;0.00;0.00
73148;PMS7003;61346;48.930;2.266;2022-09-16T16:58:37;0.00;0.00;0.00
73148;PMS7003;61346;48.930;2.266;2022-09-16T17:01:29;0.75;0.75;0.75
73148;PMS7003;61346;48.930;2.266;2022-09-16T17:04:03;1.00;1.00;1.00
73148;PMS7003;61346;48.930;2.266;2022-09-16T17:06:49;0.00;0.00;0.00
73148;PMS7003;61346;48.930;2.266;2022-09-16T17:09:20;0.00;0.00;0.00
73148;PMS7003;61346;48.930;2.266;2022-09-16T17:14:48;0.50;0.50;0.50
73148;PMS7003;61346;48.930;2.266;2022-09-16T17:17:36;1.50;1.50;1.00
73148;PMS7003;61346;48.930;2.266;2022-09-16T17:26:14;1.00;0.00;0.00
73148;PMS7003;61346;48.930;2.266;2022-09-16T17:29:20;0.75;0.75;0.75
73148;PMS7003;61346;48.930;2.266;2022-09-16T17:31:48;1.50;0.25;0.00
73148;PMS7003;61346;48.930;2.266;2022-09-16T17:38:12;0.50;0.00;0.00
73148;PMS7003;61346;48.930;2.266;2022-09-16T17:41:07;0.25;0.00;0.00
73148;PMS7003;61346;48.930;2.266;2022-09-16T17:43:42;1.00;1.00;1.00
73148;PMS7003;61346;48.930;2.266;2022-09-16T17:46:14;0.00;0.00;0.00
73148;PMS7003;61346;48.930;2.266;2022-09-16T17:48:51;2.00;1.00;1.00
73148;PMS7003;61346;48.930;2.266;2022-09-16T17:51:28;0.25;0.25;0.25
73148;PMS7003;61346;48.930;2.266;2022-09-16T17:54:02;2.50;1.25;1.25
73148;PMS7003;61346;48.930;2.266;2022-09-16T17:56:40;0.00;0.00;0.00
73148;PMS7003;61346;48.930;2.266;2022-09-16T18:07:23;0.25;0.25;0.25
73148;PMS7003;61346;48.930;2.266;2022-09-16T18:09:49;1.00;0.50;0.50
73148;PMS7003;61346;48.930;2.266;2022-09-16T18:12:14;0.50;0.50;0.00
73148;PMS7003;61346;48.930;2.266;2022-09-16T18:17:41;0.50;0.50;0.50
73148;PMS7003;61346;48.930;2.266;2022-09-16T18:20:20;1.75;1.75;1.00
73148;PMS7003;61346;48.930;2.266;2022-09-16T18:22:47;2.00;1.00;1.00
73148;PMS7003;61346;48.930;2.266;2022-09-16T18:25:20;1.00;1.00;1.00
73148;PMS7003;61346;48.930;2.266;2022-09-16T18:28:14;2.00;1.00;1.00
73148;PMS7003;61346;48.930;2.266;2022-09-16T18:30:40;0.25;0.25;0.25
73148;PMS7003;61346;48.930;2.266;2022-09-16T18:33:07;1.00;1.00;1.00
73148;PMS7003;61346;48.930;2.266;2022-09-16T18:35:36;1.00;1.00;1.00
73148;PMS7003;61346;48.930;2.266;2022-09-16T18:38:09;1.00;1.00;1.00
73148;PMS7003;61346;48.930;2.266;2022-09-16T18:44:29;3.00;3.00;2.00
73148;PMS7003;61346;48.930;2.266;2022-09-16T18:46:55;1.00;1.00;0.00
73148;PMS7003;61346;48.930;2.266;2022-09-16T18:49:33;1.00;0.00;0.00
73148;PMS7003;61346;48.930;2.266;2022-09-16T18:55:21;2.00;1.00;1.00
73148;PMS7003;61346;48.930;2.266;2022-09-16T19:08:01;1.00;1.00;1.00
73148;PMS7003;61346;48.930;2.266;2022-09-16T19:14:39;1.00;1.00;1.00
73148;PMS7003;61346;48.930;2.266;2022-09-16T19:17:41;2.50;1.00;1.00
73148;PMS7003;61346;48.930;2.266;2022-09-16T19:26:58;1.00;1.00;1.00
73148;PMS7003;61346;48.930;2.266;2022-09-16T19:32:59;2.00;1.25;1.00
73148;PMS7003;61346;48.930;2.266;2022-09-16T20:14:17;2.00;2.00;1.00
73148;PMS7003;61346;48.930;2.266;2022-09-16T20:17:39;1.00;1.00;1.00
73148;PMS7003;61346;48.930;2.266;2022-09-16T20:24:22;2.25;1.00;1.00
73148;PMS7003;61346;48.930;2.266;2022-09-16T20:30:54;2.00;2.00;1.50
73148;PMS7003;61346;48.930;2.266;2022-09-16T20:37:08;1.50;0.75;0.00
73148;PMS7003;61346;48.930;2.266;2022-09-16T21:13:07;0.00;0.00;0.00
73148;PMS7003;61346;48.930;2.266;2022-09-16T21:16:00;2.00;1.00;1.00
73148;PMS7003;61346;48.930;2.266;2022-09-16T21:19:17;1.00;1.00;1.00
73148;PMS7003;61346;48.930;2.266;2022-09-16T21:21:43;0.50;0.50;0.50
73148;PMS7003;61346;48.930;2.266;2022-09-16T21:24:11;1.00;1.00;1.00
73148;PMS7003;61346;48.930;2.266;2022-09-16T21:26:37;2.00;2.00;2.00
73148;PMS7003;61346;48.930;2.266;2022-09-16T21:29:08;1.50;1.50;1.50
73148;PMS7003;61346;48.930;2.266;2022-09-16T21:31:36;0.00;0.00;0.00
73148;PMS7003;61346;48.930;2.266;2022-09-16T21:34:04;1.00;1.00;1.00
73148;PMS7003;61346;48.930;2.266;2022-09-16T21:36:30;2.00;1.00;1.00
73148;PMS7003;61346;48.930;2.266;2022-09-16T21:38:57;1.00;1.00;1.00
73148;PMS7003;61346;48.930;2.266;2022-09-16T21:41:23;1.00;1.00;1.00
73148;PMS7003;61346;48.930;2.266;2022-09-16T21:43:50;1.00;1.00;1.00
73148;PMS7003;61346;48.930;2.266;2022-09-16T21:46:28;2.00;1.00;1.00
73148;PMS7003;61346;48.930;2.266;2022-09-16T21:49:00;0.75;0.00;0.00
73148;PMS7003;61346;48.930;2.266;2022-09-16T21:51:27;1.50;0.25;0.25
73148;PMS7003;61346;48.930;2.266;2022-09-16T21:54:02;0.00;0.00;0.00
73148;PMS7003;61346;48.930;2.266;2022-09-16T21:56:31;2.00;1.00;1.00
73148;PMS7003;61346;48.930;2.266;2022-09-16T21:58:57;1.00;1.00;0.75
73148;PMS7003;61346;48.930;2.266;2022-09-16T22:01:24;2.00;1.00;1.00
73148;PMS7003;61346;48.930;2.266;2022-09-16T22:03:52;1.50;1.00;1.00
73148;PMS7003;61346;48.930;2.266;2022-09-16T22:06:19;1.00;1.00;1.00
73148;PMS7003;61346;48.930;2.266;2022-09-16T22:08:52;1.00;1.00;1.00
73148;PMS7003;61346;48.930;2.266;2022-09-16T22:11:19;1.00;1.00;1.00
73148;PMS7003;61346;48.930;2.266;2022-09-16T22:13:46;1.00;1.00;1.00
73148;PMS7003;61346;48.930;2.266;2022-09-16T22:16:14;1.00;1.00;1.00
73148;PMS7003;61346;48.930;2.266;2022-09-16T22:18:41;1.00;1.00;1.00
73148;PMS7003;61346;48.930;2.266;2022-09-16T22:21:09;1.00;1.00;1.00
73148;PMS7003;61346;48.930;2.266;2022-09-16T22:23:36;1.00;1.00;0.25
73148;PMS7003;61346;48.930;2.266;2022-09-16T22:26:04;1.50;1.50;1.00
73148;PMS7003;61346;48.930;2.266;2022-09-16T22:28:37;2.00;0.75;0.75
73148;PMS7003;61346;48.930;2.266;2022-09-16T22:33:42;1.00;1.00;1.00
73148;PMS7003;61346;48.930;2.266;2022-09-16T22:36:09;4.00;1.25;1.00
73148;PMS7003;61346;48.930;2.266;2022-09-16T22:38:36;1.00;1.00;1.00
73148;PMS7003;61346;48.930;2.266;2022-09-16T22:41:03;2.00;1.00;1.00
73148;PMS7003;61346;48.930;2.266;2022-09-16T22:43:35;3.25;2.75;2.25
73148;PMS7003;61346;48.930;2.266;2022-09-16T22:46:02;3.00;2.50;2.00
73148;PMS7003;61346;48.930;2.266;2022-09-16T22:48:28;3.00;3.00;2.25
73148;PMS7003;61346;48.930;2.266;2022-09-16T22:50:57;3.00;3.00;2.25
73148;PMS7003;61346;48.930;2.266;2022-09-16T22:53:23;3.00;3.00;3.00
73148;PMS7003;61346;48.930;2.266;2022-09-16T22:55:57;3.00;3.00;1.75
73148;PMS7003;61346;48.930;2.266;2022-09-16T22:58:33;3.25;3.00;2.75
73148;PMS7003;61346;48.930;2.266;2022-09-16T23:01:00;4.25;3.00;3.00
73148;PMS7003;61346;48.930;2.266;2022-09-16T23:03:28;2.50;2.00;2.00
73148;PMS7003;61346;48.930;2.266;2022-09-16T23:05:58;4.00;4.00;3.00
73148;PMS7003;61346;48.930;2.266;2022-09-16T23:08:25;3.25;3.25;3.00
73148;PMS7003;61346;48.930;2.266;2022-09-16T23:10:52;4.75;4.00;4.00
73148;PMS7003;61346;48.930;2.266;2022-09-16T23:13:18;4.00;4.00;3.00
73148;PMS7003;61346;48.930;2.266;2022-09-16T23:15:45;3.75;3.75;3.00
73148;PMS7003;61346;48.930;2.266;2022-09-16T23:18:17;2.50;2.50;2.25
73148;PMS7003;61346;48.930;2.266;2022-09-16T23:20:44;3.50;3.50;2.50
73148;PMS7003;61346;48.930;2.266;2022-09-16T23:23:19;3.50;3.00;3.00
73148;PMS7003;61346;48.930;2.266;2022-09-16T23:25:44;3.00;3.00;3.00
73148;PMS7003;61346;48.930;2.266;2022-09-16T23:28:10;2.50;2.50;2.00
73148;PMS7003;61346;48.930;2.266;2022-09-16T23:30:36;2.25;2.25;2.25
73148;PMS7003;61346;48.930;2.266;2022-09-16T23:33:01;5.00;4.00;3.00
73148;PMS7003;61346;48.930;2.266;2022-09-16T23:35:27;4.00;4.00;3.00
73148;PMS7003;61346;48.930;2.266;2022-09-16T23:37:52;4.50;3.75;2.75
73148;PMS7003;61346;48.930;2.266;2022-09-16T23:40:20;3.50;2.50;2.00
73148;PMS7003;61346;48.930;2.266;2022-09-16T23:42:46;3.00;3.00;2.50
73148;PMS7003;61346;48.930;2.266;2022-09-16T23:45:11;2.50;2.50;2.00
73148;PMS7003;61346;48.930;2.266;2022-09-16T23:47:38;3.25;3.25;2.75
73148;PMS7003;61346;48.930;2.266;2022-09-16T23:50:04;3.75;3.00;2.75
73148;PMS7003;61346;48.930;2.266;2022-09-16T23:52:29;4.25;4.00;3.00
73148;PMS7003;61346;48.930;2.266;2022-09-16T23:54:55;2.50;2.50;2.50
73148;PMS7003;61346;48.930;2.266;2022-09-16T23:57:20;4.25;3.00;2.00
73148;PMS7003;61346;48.930;2.266;2022-09-16T23:59:46;3.75;3.75;2.75
